Time;durP1;ratioP1;P1;durP2;ratioP2;P2;SDS_P1;SDS_P2;PMS_P1;PMS_P2;Temp;Humidity;BMP_temperature;BMP_pressure;BME280_temperature;BME280_humidity;BME280_pressure;Samples;Min_cycle;Max_cycle;Signal;HPM_P1;HPM_P2
2021/08/12 00:01:51;;;;;;;1.73;1.63;;;15.10;99.90;;;;;;4972218;28;20405;-74
2021/08/12 00:04:20;;;;;;;1.60;1.50;;;15.10;99.90;;;;;;4973103;28;20775;-74
2021/08/12 00:06:46;;;;;;;1.70;1.60;;;15.00;99.90;;;;;;4989375;28;20408;-74
2021/08/12 00:09:12;;;;;;;2.08;1.88;;;14.90;99.90;;;;;;4988608;28;20404;-74
2021/08/12 00:11:38;;;;;;;1.50;1.40;;;14.80;99.90;;;;;;4989016;28;20474;-74
2021/08/12 00:14:04;;;;;;;1.17;1.17;;;14.80;99.90;;;;;;4983327;28;20433;-74
2021/08/12 00:16:29;;;;;;;1.73;1.63;;;14.70;99.90;;;;;;4955739;28;20460;-74
2021/08/12 00:18:55;;;;;;;1.80;1.70;;;14.70;99.90;;;;;;5004239;28;20397;-74
2021/08/12 00:21:24;;;;;;;1.98;1.83;;;14.70;99.90;;;;;;4988706;28;20943;-74
2021/08/12 00:23:53;;;;;;;1.40;1.30;;;14.70;99.90;;;;;;4973125;28;20931;-74
2021/08/12 00:26:18;;;;;;;1.73;1.63;;;14.60;99.90;;;;;;4988407;28;20459;-74
2021/08/12 00:28:44;;;;;;;1.57;1.47;;;14.60;99.90;;;;;;4989064;28;20400;-74
2021/08/12 00:31:11;;;;;;;1.55;1.45;;;14.60;99.90;;;;;;5002272;28;20405;-74
2021/08/12 00:33:36;;;;;;;1.50;1.40;;;14.50;99.90;;;;;;4975935;28;20516;-74
2021/08/12 00:36:03;;;;;;;1.90;1.70;;;14.50;99.90;;;;;;4982644;28;21017;-75
2021/08/12 00:38:30;;;;;;;1.40;1.30;;;14.50;99.90;;;;;;4957122;28;20869;-74
2021/08/12 00:40:56;;;;;;;1.20;1.20;;;14.40;99.90;;;;;;5013324;28;20921;-74
2021/08/12 00:43:24;;;;;;;1.40;1.30;;;14.40;99.90;;;;;;4968350;28;20395;-74
2021/08/12 00:45:50;;;;;;;1.70;1.60;;;14.40;99.90;;;;;;5002785;28;20424;-73
2021/08/12 00:48:16;;;;;;;1.60;1.50;;;14.30;99.90;;;;;;4971417;28;20454;-73
2021/08/12 00:50:42;;;;;;;1.50;1.40;;;14.30;99.90;;;;;;4999620;28;20399;-73
2021/08/12 00:53:09;;;;;;;1.87;1.77;;;14.20;99.90;;;;;;4988517;28;20412;-74
2021/08/12 00:55:42;;;;;;;1.58;1.48;;;14.20;99.90;;;;;;4987876;28;20470;-74
2021/08/12 00:58:10;;;;;;;1.75;1.65;;;14.20;99.90;;;;;;4971843;28;20397;-74
2021/08/12 01:00:36;;;;;;;1.20;1.20;;;14.20;99.90;;;;;;4995035;28;20444;-74
2021/08/12 01:03:12;;;;;;;1.70;1.60;;;14.20;99.90;;;;;;4988268;28;20404;-74
2021/08/12 01:05:47;;;;;;;2.10;2.00;;;14.10;99.90;;;;;;4987805;28;20447;-73
2021/08/12 01:08:35;;;;;;;1.77;1.67;;;14.10;99.90;;;;;;4989342;28;20478;-73
2021/08/12 01:11:21;;;;;;;1.60;1.50;;;14.00;99.90;;;;;;5010840;28;20409;-74
2021/08/12 01:14:10;;;;;;;1.60;1.50;;;14.00;99.90;;;;;;4982542;28;20465;-73
2021/08/12 01:16:38;;;;;;;1.60;1.50;;;14.00;99.90;;;;;;5003477;28;20908;-73
2021/08/12 01:19:26;;;;;;;1.80;1.70;;;14.00;99.90;;;;;;4972010;28;20945;-73
2021/08/12 01:21:54;;;;;;;1.50;1.40;;;14.00;99.90;;;;;;4988987;28;20408;-74
2021/08/12 01:24:20;;;;;;;1.70;1.60;;;13.90;99.90;;;;;;4987415;28;20381;-73
2021/08/12 01:26:52;;;;;;;1.35;1.30;;;13.90;99.90;;;;;;4967741;28;20492;-73
2021/08/12 01:29:32;;;;;;;1.80;1.70;;;13.80;99.90;;;;;;4963181;28;20414;-73
2021/08/12 01:32:04;;;;;;;1.43;1.33;;;13.80;99.90;;;;;;4985043;28;20405;-73
2021/08/12 01:34:51;;;;;;;1.67;1.58;;;13.80;99.90;;;;;;4988229;28;21051;-74
2021/08/12 01:37:17;;;;;;;1.30;1.30;;;13.80;99.90;;;;;;4985870;28;20491;-73
2021/08/12 01:39:44;;;;;;;1.57;1.47;;;13.80;99.90;;;;;;4967690;28;20404;-74
2021/08/12 01:42:11;;;;;;;1.75;1.63;;;13.80;99.90;;;;;;4970486;28;20393;-74
2021/08/12 01:44:38;;;;;;;1.77;1.67;;;13.80;99.90;;;;;;4985874;28;20409;-73
2021/08/12 01:47:08;;;;;;;1.60;1.50;;;13.80;99.90;;;;;;4967119;28;20410;-73
2021/08/12 01:49:35;;;;;;;1.90;1.80;;;13.70;99.90;;;;;;5013289;28;20435;-72
2021/08/12 01:52:01;;;;;;;1.63;1.52;;;13.70;99.90;;;;;;4970584;28;20413;-73
2021/08/12 01:54:29;;;;;;;1.75;1.65;;;13.80;99.90;;;;;;4974832;28;20481;-73
2021/08/12 01:56:56;;;;;;;1.73;1.63;;;13.70;99.90;;;;;;4987261;28;20804;-73
2021/08/12 01:59:23;;;;;;;1.67;1.57;;;13.70;99.90;;;;;;4957575;28;20412;-74
2021/08/12 02:01:50;;;;;;;1.40;1.30;;;13.70;99.90;;;;;;4970538;28;20422;-74
2021/08/12 02:04:17;;;;;;;1.75;1.65;;;13.70;99.90;;;;;;4980180;28;20398;-73
2021/08/12 02:06:42;;;;;;;1.30;1.30;;;13.70;99.90;;;;;;4988568;28;20927;-73
2021/08/12 02:09:08;;;;;;;1.50;1.40;;;13.60;99.90;;;;;;4958302;28;20396;-73
2021/08/12 02:11:34;;;;;;;1.50;1.40;;;13.60;99.90;;;;;;4971301;28;20805;-73
2021/08/12 02:14:00;;;;;;;2.10;1.88;;;13.60;99.90;;;;;;4984686;28;20446;-73
2021/08/12 02:16:27;;;;;;;1.70;1.60;;;13.60;99.90;;;;;;5005753;28;20458;-73
2021/08/12 02:18:53;;;;;;;1.90;1.80;;;13.50;99.90;;;;;;4972777;28;20402;-73
2021/08/12 02:21:22;;;;;;;1.70;1.60;;;13.50;99.90;;;;;;4989206;28;20408;-73
2021/08/12 02:23:55;;;;;;;1.50;1.40;;;13.50;99.90;;;;;;4957222;28;20404;-74
2021/08/12 02:26:21;;;;;;;1.67;1.58;;;13.50;99.90;;;;;;4974130;28;20431;-74
2021/08/12 02:28:47;;;;;;;1.60;1.50;;;13.40;99.90;;;;;;4958360;28;20578;-73
2021/08/12 02:31:14;;;;;;;1.50;1.40;;;13.40;99.90;;;;;;4987639;28;20520;-72
2021/08/12 02:33:41;;;;;;;3.75;1.80;;;13.30;99.90;;;;;;4988167;28;20813;-73
2021/08/12 02:36:08;;;;;;;2.30;1.83;;;13.30;99.90;;;;;;4972351;28;20404;-73
2021/08/12 02:38:36;;;;;;;2.13;1.92;;;13.30;99.90;;;;;;4991121;28;20528;-74
2021/08/12 02:41:02;;;;;;;1.75;1.65;;;13.40;99.90;;;;;;4974632;28;21157;-73
2021/08/12 02:43:29;;;;;;;1.55;1.45;;;13.30;99.90;;;;;;4971948;28;20424;-73
2021/08/12 02:45:57;;;;;;;1.67;1.58;;;13.30;99.90;;;;;;4989082;28;21121;-73
2021/08/12 02:48:24;;;;;;;1.83;1.73;;;13.20;99.90;;;;;;4977865;28;20393;-73
2021/08/12 02:50:50;;;;;;;1.92;1.83;;;13.20;99.90;;;;;;4991854;28;20470;-73
2021/08/12 02:53:15;;;;;;;1.90;1.80;;;13.20;99.90;;;;;;4974197;28;20401;-74
2021/08/12 02:55:41;;;;;;;1.77;1.67;;;13.10;99.90;;;;;;4974807;28;20392;-73
2021/08/12 02:58:07;;;;;;;1.42;1.33;;;13.20;99.90;;;;;;4973180;28;20423;-73
2021/08/12 03:00:33;;;;;;;1.90;1.80;;;13.10;99.90;;;;;;4972672;28;20428;-74
2021/08/12 03:02:58;;;;;;;1.80;1.70;;;13.10;99.90;;;;;;4990359;28;20400;-73
2021/08/12 03:05:24;;;;;;;1.85;1.75;;;13.10;99.90;;;;;;4973185;28;20401;-73
2021/08/12 03:07:50;;;;;;;1.58;1.48;;;13.10;99.90;;;;;;4973917;28;20480;-72
2021/08/12 03:10:20;;;;;;;1.80;1.70;;;13.00;99.90;;;;;;5004302;28;20989;-73
2021/08/12 03:12:47;;;;;;;1.77;1.67;;;13.00;99.90;;;;;;4971221;28;20397;-73
2021/08/12 03:15:13;;;;;;;1.50;1.40;;;13.00;99.90;;;;;;4965489;28;20400;-74
2021/08/12 03:17:39;;;;;;;1.98;1.45;;;12.90;99.90;;;;;;4972400;28;20405;-73
2021/08/12 03:20:05;;;;;;;1.67;1.58;;;12.90;99.90;;;;;;4974256;28;20424;-73
2021/08/12 03:22:31;;;;;;;1.50;1.40;;;12.90;99.90;;;;;;4989830;28;20523;-73
2021/08/12 03:24:56;;;;;;;1.63;1.52;;;12.90;99.90;;;;;;4972349;28;20490;-72
2021/08/12 03:27:22;;;;;;;1.93;1.83;;;12.80;99.90;;;;;;4988812;28;20411;-73
2021/08/12 03:29:50;;;;;;;1.83;1.73;;;12.80;99.90;;;;;;4975879;28;20888;-73
2021/08/12 03:32:17;;;;;;;2.03;1.92;;;12.80;99.90;;;;;;4967198;28;20399;-72
2021/08/12 03:34:44;;;;;;;1.85;1.75;;;12.80;99.90;;;;;;4973676;28;20409;-72
2021/08/12 03:37:09;;;;;;;1.75;1.63;;;12.70;99.90;;;;;;4989855;28;20468;-73
2021/08/12 03:39:35;;;;;;;1.90;1.80;;;12.70;99.90;;;;;;4973882;28;20407;-73
2021/08/12 03:42:01;;;;;;;1.80;1.70;;;12.60;99.90;;;;;;4985815;28;20389;-74
2021/08/12 03:44:27;;;;;;;1.65;1.55;;;12.60;99.90;;;;;;4974063;28;20405;-73
2021/08/12 03:46:53;;;;;;;2.73;1.97;;;12.60;99.90;;;;;;4955691;28;20416;-73
2021/08/12 03:49:18;;;;;;;1.67;1.58;;;12.60;99.90;;;;;;4990593;28;20451;-73
2021/08/12 03:51:45;;;;;;;1.63;1.52;;;12.60;99.90;;;;;;4990160;28;20401;-73
2021/08/12 03:54:10;;;;;;;1.60;1.50;;;12.60;99.90;;;;;;4990681;28;20765;-73
2021/08/12 03:56:36;;;;;;;1.85;1.75;;;12.60;99.90;;;;;;4970686;28;20413;-72
2021/08/12 03:59:03;;;;;;;1.70;1.60;;;12.60;99.90;;;;;;4988847;28;20397;-73
2021/08/12 04:01:30;;;;;;;1.70;1.60;;;12.60;99.90;;;;;;4959330;28;20504;-73
2021/08/12 04:03:56;;;;;;;1.92;1.38;;;12.60;99.90;;;;;;5021773;28;20421;-73
2021/08/12 04:06:24;;;;;;;1.42;1.40;;;12.60;99.90;;;;;;4954981;28;20421;-73
2021/08/12 04:08:49;;;;;;;1.50;1.40;;;12.60;99.90;;;;;;4973012;28;20494;-72
2021/08/12 04:11:15;;;;;;;1.73;1.63;;;12.60;99.90;;;;;;4989392;28;20768;-74
2021/08/12 04:13:41;;;;;;;1.77;1.67;;;12.60;99.90;;;;;;4962688;28;20401;-73
2021/08/12 04:16:07;;;;;;;1.80;1.70;;;12.60;99.90;;;;;;5004642;28;20401;-74
2021/08/12 04:18:33;;;;;;;1.70;1.60;;;12.60;99.90;;;;;;4972287;28;20428;-72
2021/08/12 04:20:58;;;;;;;1.73;1.63;;;12.70;99.90;;;;;;4968713;28;20402;-72
2021/08/12 04:23:24;;;;;;;1.60;1.50;;;12.70;99.90;;;;;;5006570;28;20397;-72
2021/08/12 04:25:51;;;;;;;1.52;1.42;;;12.70;99.90;;;;;;4973008;28;20427;-73
2021/08/12 04:28:17;;;;;;;1.70;1.60;;;12.70;99.90;;;;;;5015519;28;20392;-74
2021/08/12 04:30:44;;;;;;;1.70;1.60;;;12.70;99.90;;;;;;4992140;28;20773;-72
2021/08/12 04:33:10;;;;;;;1.70;1.60;;;12.70;99.90;;;;;;5005960;28;20408;-72
2021/08/12 04:35:36;;;;;;;1.75;1.65;;;12.80;99.90;;;;;;5004882;28;20907;-73
2021/08/12 04:38:02;;;;;;;1.63;1.52;;;12.80;99.90;;;;;;4969681;28;20392;-73
2021/08/12 04:40:27;;;;;;;1.47;1.37;;;12.80;99.90;;;;;;4984980;28;20397;-73
2021/08/12 04:42:53;;;;;;;1.60;1.50;;;12.90;99.90;;;;;;4980537;28;21062;-73
2021/08/12 04:45:20;;;;;;;1.70;1.60;;;12.90;99.90;;;;;;4978093;28;20428;-73
2021/08/12 04:47:46;;;;;;;1.65;1.55;;;13.00;99.90;;;;;;4972714;28;20753;-73
2021/08/12 04:50:12;;;;;;;2.03;1.83;;;13.00;99.90;;;;;;5005637;28;20392;-74
2021/08/12 04:52:41;;;;;;;1.80;1.70;;;13.10;99.90;;;;;;5011125;28;20403;-73
2021/08/12 04:55:08;;;;;;;2.20;2.03;;;13.20;99.90;;;;;;4972512;28;20420;-74
2021/08/12 04:57:34;;;;;;;1.88;1.77;;;13.30;99.90;;;;;;4984163;28;20990;-74
2021/08/12 04:59:59;;;;;;;1.75;1.65;;;13.40;99.90;;;;;;4989283;28;20401;-73
2021/08/12 05:02:26;;;;;;;2.00;1.80;;;13.50;99.90;;;;;;4972373;28;20420;-72
2021/08/12 05:04:52;;;;;;;2.20;1.80;;;13.60;99.90;;;;;;4969850;28;20389;-74
2021/08/12 05:07:19;;;;;;;1.85;1.75;;;13.70;99.90;;;;;;4983841;28;20545;-73
2021/08/12 05:09:46;;;;;;;1.80;1.70;;;13.70;99.90;;;;;;4971503;28;20400;-73
2021/08/12 05:12:12;;;;;;;1.80;1.70;;;13.80;99.90;;;;;;4977657;28;20854;-73
2021/08/12 05:14:38;;;;;;;1.85;1.75;;;13.90;99.90;;;;;;4987581;28;20893;-74
2021/08/12 05:17:04;;;;;;;1.77;1.67;;;14.00;99.90;;;;;;4987620;28;20397;-73
2021/08/12 05:19:29;;;;;;;2.07;1.87;;;14.10;99.90;;;;;;4970676;28;20395;-73
2021/08/12 05:21:55;;;;;;;1.60;1.50;;;14.20;99.90;;;;;;4985350;28;20412;-73
2021/08/12 05:24:22;;;;;;;1.70;1.60;;;14.30;99.90;;;;;;4986873;28;20397;-74
2021/08/12 05:26:48;;;;;;;1.98;1.80;;;14.40;99.90;;;;;;4977445;28;20414;-74
2021/08/12 05:29:14;;;;;;;1.80;1.70;;;14.60;99.90;;;;;;4990368;28;20693;-73
2021/08/12 05:31:39;;;;;;;1.95;1.83;;;14.70;99.90;;;;;;4988500;28;20396;-73
2021/08/12 05:34:05;;;;;;;2.20;1.75;;;14.80;99.90;;;;;;4970548;28;20393;-73
2021/08/12 05:36:31;;;;;;;1.90;1.80;;;15.00;99.90;;;;;;4988800;28;20961;-74
2021/08/12 05:38:57;;;;;;;1.80;1.70;;;15.10;99.90;;;;;;4972480;28;20404;-73
2021/08/12 05:41:23;;;;;;;1.80;1.70;;;15.30;99.90;;;;;;4972589;28;20464;-73
2021/08/12 05:43:49;;;;;;;1.37;1.33;;;15.40;99.90;;;;;;4973673;28;20407;-73
2021/08/12 05:46:14;;;;;;;1.80;1.70;;;15.60;99.90;;;;;;5002669;28;21827;-73
2021/08/12 05:48:41;;;;;;;2.05;1.80;;;15.80;99.90;;;;;;4967993;28;20406;-73
2021/08/12 05:51:07;;;;;;;2.63;2.42;;;16.00;99.90;;;;;;4998391;28;20403;-74
2021/08/12 05:53:32;;;;;;;2.40;2.20;;;16.10;99.90;;;;;;4963108;28;20458;-74
2021/08/12 05:55:58;;;;;;;2.47;2.27;;;16.20;99.90;;;;;;5004013;28;20463;-74
2021/08/12 05:58:24;;;;;;;2.03;1.92;;;16.40;99.90;;;;;;4972114;28;20388;-73
2021/08/12 06:00:50;;;;;;;2.50;2.30;;;16.60;99.90;;;;;;5004423;28;20435;-74
2021/08/12 06:03:16;;;;;;;3.75;2.92;;;16.70;99.90;;;;;;4976929;28;20412;-74
2021/08/12 06:05:42;;;;;;;2.40;2.20;;;16.80;99.90;;;;;;4983900;28;22046;-74
2021/08/12 06:08:10;;;;;;;2.85;2.60;;;16.90;99.90;;;;;;4982654;28;20412;-74
2021/08/12 06:10:37;;;;;;;2.30;2.10;;;17.10;99.90;;;;;;4972353;28;20405;-74
2021/08/12 06:13:03;;;;;;;3.05;2.40;;;17.20;99.90;;;;;;4970892;28;20620;-74
2021/08/12 06:15:29;;;;;;;2.35;2.15;;;17.40;99.90;;;;;;4971837;28;20408;-74
2021/08/12 06:17:55;;;;;;;2.30;2.10;;;17.60;99.90;;;;;;4970919;28;20389;-74
2021/08/12 06:20:21;;;;;;;2.25;2.10;;;17.80;99.90;;;;;;4968128;28;20452;-74
2021/08/12 06:22:47;;;;;;;2.30;2.10;;;18.00;99.90;;;;;;5012138;28;20409;-74
2021/08/12 06:25:13;;;;;;;2.13;2.00;;;18.20;99.90;;;;;;4988365;28;20392;-74
2021/08/12 06:27:39;;;;;;;2.50;2.30;;;18.40;99.90;;;;;;4991742;28;20412;-74
2021/08/12 06:30:06;;;;;;;2.25;2.15;;;18.60;99.90;;;;;;4971720;28;20967;-74
2021/08/12 06:32:32;;;;;;;2.10;2.00;;;18.80;99.90;;;;;;4997158;28;20404;-73
2021/08/12 06:34:58;;;;;;;1.80;1.70;;;19.00;99.90;;;;;;4971825;28;20404;-74
2021/08/12 06:37:24;;;;;;;2.20;2.00;;;19.20;99.90;;;;;;4987587;28;20515;-75
2021/08/12 06:39:50;;;;;;;2.20;2.03;;;19.30;99.90;;;;;;4972216;28;21108;-75
2021/08/12 06:42:16;;;;;;;2.40;2.20;;;19.50;99.90;;;;;;5001877;28;20395;-74
2021/08/12 06:44:53;;;;;;;2.58;2.38;;;19.80;99.90;;;;;;4984899;28;20462;-75
2021/08/12 06:47:18;;;;;;;2.10;1.97;;;20.10;99.90;;;;;;4990145;28;20413;-74
2021/08/12 06:49:49;;;;;;;2.30;2.05;;;20.20;99.90;;;;;;4975893;28;20431;-74
2021/08/12 06:52:15;;;;;;;1.98;1.88;;;20.30;99.90;;;;;;4974813;28;20508;-74
2021/08/12 06:54:41;;;;;;;2.15;2.03;;;20.40;99.90;;;;;;4988722;28;20395;-74
2021/08/12 06:57:08;;;;;;;2.70;2.50;;;20.40;99.90;;;;;;4968967;28;20398;-74
2021/08/12 06:59:35;;;;;;;2.58;2.38;;;20.50;99.90;;;;;;4997233;28;20405;-74
2021/08/12 07:02:01;;;;;;;2.50;2.22;;;20.60;99.90;;;;;;4987016;28;20396;-74
2021/08/12 07:04:27;;;;;;;2.30;2.10;;;20.80;99.90;;;;;;4966415;28;20392;-74
2021/08/12 07:06:53;;;;;;;2.28;2.17;;;20.90;99.90;;;;;;4971774;28;20444;-74
2021/08/12 07:09:19;;;;;;;2.40;2.20;;;21.00;99.90;;;;;;4990739;28;20416;-74
2021/08/12 07:11:49;;;;;;;2.90;2.30;;;21.10;99.90;;;;;;4971007;28;20397;-74
2021/08/12 07:14:15;;;;;;;2.58;2.38;;;21.20;99.90;;;;;;4974775;28;20496;-74
2021/08/12 07:16:42;;;;;;;2.30;2.10;;;21.20;99.90;;;;;;4986945;28;20434;-75
2021/08/12 07:19:07;;;;;;;2.33;2.20;;;21.30;99.90;;;;;;4974715;28;21259;-74
2021/08/12 07:21:34;;;;;;;3.20;2.40;;;21.50;99.90;;;;;;5007040;28;20435;-74
2021/08/12 07:24:02;;;;;;;1.88;1.77;;;21.60;99.90;;;;;;4991946;28;20389;-74
2021/08/12 07:26:28;;;;;;;2.63;2.28;;;21.70;99.90;;;;;;4992034;28;20417;-74
2021/08/12 07:28:54;;;;;;;2.10;2.00;;;21.90;99.90;;;;;;4966612;28;20403;-74
2021/08/12 07:31:21;;;;;;;2.47;2.28;;;21.90;99.90;;;;;;4985529;28;20389;-74
2021/08/12 07:33:47;;;;;;;3.20;2.30;;;22.10;99.90;;;;;;4958025;28;20403;-74
2021/08/12 07:36:13;;;;;;;2.35;2.20;;;22.30;99.90;;;;;;4985523;28;20425;-74
2021/08/12 07:38:39;;;;;;;2.10;1.90;;;22.50;99.90;;;;;;4969668;28;20426;-74
2021/08/12 07:41:05;;;;;;;1.87;1.77;;;22.60;99.90;;;;;;4992618;28;20931;-74
2021/08/12 07:43:31;;;;;;;2.42;1.98;;;22.70;99.90;;;;;;5004896;28;20828;-74
2021/08/12 07:45:57;;;;;;;2.00;1.88;;;22.90;99.90;;;;;;4970765;28;20748;-74
2021/08/12 07:48:24;;;;;;;1.73;1.63;;;23.00;99.90;;;;;;4973907;28;20389;-74
2021/08/12 07:50:49;;;;;;;2.15;2.00;;;23.20;99.90;;;;;;4973144;28;20393;-74
2021/08/12 07:53:16;;;;;;;1.83;1.73;;;23.30;99.90;;;;;;4998257;28;20418;-74
2021/08/12 07:55:41;;;;;;;1.70;1.60;;;23.40;99.90;;;;;;4999705;28;20825;-74
2021/08/12 07:58:07;;;;;;;1.50;1.40;;;23.50;99.90;;;;;;5000607;28;20397;-74
2021/08/12 08:00:32;;;;;;;1.67;1.57;;;23.50;99.90;;;;;;4989032;28;21016;-74
2021/08/12 08:02:58;;;;;;;1.73;1.63;;;23.50;99.90;;;;;;4970450;28;20399;-74
2021/08/12 08:05:24;;;;;;;1.55;1.45;;;23.60;99.90;;;;;;4999187;28;20431;-74
2021/08/12 08:07:51;;;;;;;1.30;1.20;;;23.70;99.90;;;;;;5006306;28;20470;-74
2021/08/12 08:10:24;;;;;;;1.65;1.55;;;23.90;99.90;;;;;;4988214;28;20415;-75
2021/08/12 08:12:50;;;;;;;1.48;1.38;;;24.00;99.90;;;;;;4983878;28;20969;-74
2021/08/12 08:15:16;;;;;;;1.53;1.43;;;24.10;99.90;;;;;;4950147;28;20413;-74
2021/08/12 08:17:42;;;;;;;1.50;1.40;;;24.30;99.90;;;;;;5031811;28;20400;-74
2021/08/12 08:20:09;;;;;;;1.60;1.50;;;24.20;99.90;;;;;;4989432;28;20407;-74
2021/08/12 08:22:35;;;;;;;1.38;1.27;;;24.20;99.90;;;;;;4990355;28;20454;-74
2021/08/12 08:25:01;;;;;;;2.03;1.83;;;24.20;99.90;;;;;;5007068;28;20956;-74
2021/08/12 08:27:26;;;;;;;1.40;1.30;;;24.40;99.90;;;;;;5000997;28;20409;-74
2021/08/12 08:29:52;;;;;;;1.50;1.40;;;24.60;99.90;;;;;;4965975;28;20437;-74
2021/08/12 08:32:19;;;;;;;1.50;1.40;;;24.70;99.90;;;;;;4972178;28;20403;-74
2021/08/12 08:34:46;;;;;;;1.40;1.30;;;24.80;99.90;;;;;;5005406;28;20397;-74
2021/08/12 08:37:12;;;;;;;1.30;1.20;;;25.00;99.90;;;;;;4988478;28;20416;-74
2021/08/12 08:39:37;;;;;;;1.10;1.10;;;25.30;99.90;;;;;;4988228;28;20421;-73
2021/08/12 08:42:04;;;;;;;3.10;1.30;;;25.50;99.90;;;;;;4971752;28;20622;-74
2021/08/12 08:44:30;;;;;;;1.45;1.35;;;25.60;99.90;;;;;;4970974;28;20435;-74
2021/08/12 08:46:56;;;;;;;1.50;1.30;;;25.50;99.90;;;;;;4968574;28;20442;-74
2021/08/12 08:49:22;;;;;;;2.65;1.80;;;25.50;99.90;;;;;;5010142;28;20897;-74
2021/08/12 08:51:50;;;;;;;1.55;1.45;;;25.60;99.90;;;;;;4972352;28;20416;-75
2021/08/12 08:54:15;;;;;;;1.90;1.50;;;25.80;99.90;;;;;;5005069;28;20389;-74
2021/08/12 08:56:43;;;;;;;1.60;1.50;;;26.00;99.90;;;;;;5000952;28;20830;-74
2021/08/12 08:59:09;;;;;;;1.40;1.30;;;26.30;99.90;;;;;;4999695;28;20394;-74
2021/08/12 09:01:35;;;;;;;1.35;1.30;;;26.40;99.90;;;;;;4975279;28;20416;-74
2021/08/12 09:04:01;;;;;;;1.58;1.48;;;26.60;99.90;;;;;;5020778;28;20404;-74
2021/08/12 09:06:26;;;;;;;1.40;1.40;;;26.70;99.90;;;;;;4972280;28;21046;-74
2021/08/12 09:08:54;;;;;;;2.10;1.80;;;26.70;99.90;;;;;;4988048;28;20735;-75
2021/08/12 09:11:21;;;;;;;1.30;1.30;;;26.80;99.90;;;;;;4987305;28;21097;-75
2021/08/12 09:13:47;;;;;;;1.77;1.67;;;26.90;99.90;;;;;;5008072;28;20404;-77
2021/08/12 09:16:33;;;;;;;2.00;1.80;;;27.00;99.90;;;;;;4960800;28;20401;-77
2021/08/12 09:19:20;;;;;;;1.85;1.70;;;27.10;99.90;;;;;;5009264;28;20912;-74
2021/08/12 09:22:04;;;;;;;2.00;1.33;;;27.10;99.90;;;;;;4989009;28;20482;-74
2021/08/12 09:24:30;;;;;;;1.52;1.42;;;27.10;99.90;;;;;;4952449;28;20433;-74
2021/08/12 09:26:55;;;;;;;1.10;1.10;;;27.20;99.90;;;;;;5011328;28;20468;-75
2021/08/12 09:29:32;;;;;;;1.15;1.15;;;27.30;99.90;;;;;;4972265;28;20516;-76
2021/08/12 09:31:59;;;;;;;1.40;1.30;;;27.50;99.90;;;;;;5003745;28;20420;-74
2021/08/12 09:34:25;;;;;;;1.20;1.20;;;27.70;99.90;;;;;;4989193;28;20915;-74
2021/08/12 09:37:07;;;;;;;1.83;1.33;;;27.90;99.90;;;;;;4989658;28;20484;-74
2021/08/12 09:39:34;;;;;;;1.60;1.48;;;28.00;99.90;;;;;;4969085;28;20441;-74
2021/08/12 09:42:00;;;;;;;1.70;1.50;;;28.00;99.90;;;;;;5002621;28;20411;-74
2021/08/12 09:44:39;;;;;;;1.60;1.50;;;28.00;99.90;;;;;;5015355;28;20783;-74
2021/08/12 09:47:09;;;;;;;2.70;1.80;;;28.10;99.90;;;;;;5012636;28;20409;-74
2021/08/12 09:49:36;;;;;;;1.67;1.48;;;28.40;99.90;;;;;;5004292;28;20452;-74
2021/08/12 09:52:36;;;;;;;1.50;1.40;;;28.40;99.90;;;;;;4971706;28;20392;-74
2021/08/12 09:55:12;;;;;;;1.40;1.30;;;28.60;99.90;;;;;;5004826;28;20385;-74
2021/08/12 09:57:42;;;;;;;1.75;1.63;;;28.70;99.90;;;;;;5007169;28;20473;-77
2021/08/12 10:00:10;;;;;;;1.60;1.50;;;28.50;99.90;;;;;;4998605;28;20404;-77
2021/08/12 10:02:37;;;;;;;1.20;1.20;;;28.30;98.50;;;;;;4988437;28;20397;-77
2021/08/12 10:05:07;;;;;;;1.50;1.40;;;28.30;99.90;;;;;;5004223;28;20933;-74
2021/08/12 10:07:37;;;;;;;1.52;1.42;;;28.50;99.90;;;;;;4972545;28;20415;-74
2021/08/12 10:10:18;;;;;;;1.45;1.35;;;28.70;99.90;;;;;;4970762;28;20893;-74
2021/08/12 10:12:51;;;;;;;1.70;1.60;;;29.00;99.90;;;;;;5000416;28;20840;-74
2021/08/12 10:15:34;;;;;;;1.40;1.30;;;29.60;99.90;;;;;;4986674;28;20396;-74
2021/08/12 10:18:02;;;;;;;1.52;1.42;;;29.80;99.90;;;;;;4970101;28;20421;-74
2021/08/12 10:20:32;;;;;;;1.75;1.42;;;30.00;99.90;;;;;;5005668;28;20400;-74
2021/08/12 10:23:00;;;;;;;1.35;1.30;;;30.10;98.50;;;;;;4956177;28;21078;-74
2021/08/12 10:25:26;;;;;;;1.08;1.08;;;29.90;94.30;;;;;;5007352;28;20421;-75
2021/08/12 10:27:56;;;;;;;0.93;0.93;;;30.00;99.80;;;;;;4974811;28;20797;-74
2021/08/12 10:30:22;;;;;;;1.55;1.45;;;30.30;95.80;;;;;;4961254;28;20407;-75
2021/08/12 10:32:54;;;;;;;1.30;1.20;;;29.90;94.80;;;;;;5010275;28;20411;-74
2021/08/12 10:35:21;;;;;;;1.17;1.17;;;30.00;95.30;;;;;;4985819;28;20422;-74
2021/08/12 10:37:48;;;;;;;1.55;1.45;;;30.10;97.40;;;;;;5007723;28;20392;-75
2021/08/12 10:40:14;;;;;;;1.70;1.60;;;30.20;90.60;;;;;;4961908;28;20417;-75
2021/08/12 10:42:44;;;;;;;1.13;1.13;;;30.20;93.40;;;;;;4974482;28;20397;-74
2021/08/12 10:45:10;;;;;;;1.40;1.30;;;30.30;93.10;;;;;;4974362;28;20484;-74
2021/08/12 10:47:40;;;;;;;1.33;1.25;;;30.50;92.70;;;;;;4957552;28;20965;-77
2021/08/12 10:50:26;;;;;;;1.30;1.20;;;30.70;95.60;;;;;;4989960;28;20940;-76
2021/08/12 10:53:04;;;;;;;3.85;1.08;;;31.10;96.20;;;;;;5010166;28;20431;-77
2021/08/12 10:55:30;;;;;;;0.90;0.90;;;31.50;92.40;;;;;;5012358;28;20397;-76
2021/08/12 10:58:17;;;;;;;1.42;1.33;;;31.60;92.50;;;;;;4975391;28;20472;-77
2021/08/12 11:00:56;;;;;;;1.35;1.25;;;31.50;87.80;;;;;;5006211;28;20459;-77
2021/08/12 11:03:33;;;;;;;1.20;1.20;;;31.50;91.30;;;;;;5006609;28;21714;-76
2021/08/12 11:06:17;;;;;;;1.30;1.20;;;31.10;82.90;;;;;;4995201;28;20440;-77
2021/08/12 11:08:48;;;;;;;1.40;1.30;;;31.30;90.50;;;;;;4975175;28;20476;-76
2021/08/12 11:11:34;;;;;;;1.58;1.20;;;31.50;89.40;;;;;;5001491;28;20391;-76
2021/08/12 11:14:13;;;;;;;1.50;1.40;;;32.00;92.00;;;;;;4985628;28;20385;-76
2021/08/12 11:16:42;;;;;;;1.27;1.17;;;32.40;86.10;;;;;;4990476;28;20421;-76
2021/08/12 11:19:33;;;;;;;1.35;1.13;;;32.70;86.00;;;;;;5008037;28;20761;-76
2021/08/12 11:21:59;;;;;;;1.33;1.30;;;32.90;91.80;;;;;;4991743;28;20404;-76
2021/08/12 11:24:25;;;;;;;1.80;1.50;;;33.30;88.10;;;;;;4974967;28;20444;-76
2021/08/12 11:26:51;;;;;;;1.37;1.27;;;33.40;77.80;;;;;;5007070;28;20423;-75
2021/08/12 11:29:25;;;;;;;1.50;1.40;;;33.50;81.10;;;;;;4999868;28;20436;-77
2021/08/12 11:32:05;;;;;;;1.17;1.15;;;33.40;75.80;;;;;;5000722;28;20411;-76
2021/08/12 11:34:49;;;;;;;1.27;1.25;;;33.40;81.00;;;;;;5006778;28;20495;-76
2021/08/12 11:37:22;;;;;;;1.60;1.35;;;33.60;83.90;;;;;;4989425;28;20769;-76
2021/08/12 11:40:04;;;;;;;1.40;1.30;;;33.70;88.60;;;;;;4990487;28;20900;-76
2021/08/12 11:42:38;;;;;;;1.33;1.23;;;33.80;78.20;;;;;;4974418;28;20397;-76
2021/08/12 11:45:11;;;;;;;1.80;1.40;;;34.00;83.00;;;;;;4976442;28;20484;-76
2021/08/12 11:47:37;;;;;;;1.45;1.35;;;34.20;85.10;;;;;;4973174;28;20444;-77
2021/08/12 11:50:05;;;;;;;1.30;1.20;;;34.40;81.30;;;;;;4957390;28;20396;-76
2021/08/12 11:52:32;;;;;;;1.00;1.00;;;34.30;80.40;;;;;;4957547;28;20523;-77
2021/08/12 11:55:15;;;;;;;1.38;1.27;;;34.50;84.90;;;;;;4974252;28;20576;-76
2021/08/12 11:57:48;;;;;;;0.90;0.90;;;34.80;82.50;;;;;;4969656;28;20521;-76
2021/08/12 12:00:18;;;;;;;1.20;1.20;;;35.10;81.60;;;;;;5000061;28;20390;-76
2021/08/12 12:02:49;;;;;;;0.98;0.98;;;34.70;68.00;;;;;;4989931;28;20476;-76
2021/08/12 12:05:16;;;;;;;0.90;0.90;;;34.70;80.10;;;;;;4990530;28;20392;-76
2021/08/12 12:07:46;;;;;;;1.97;1.30;;;34.90;79.00;;;;;;5003862;28;21160;-76
2021/08/12 12:10:21;;;;;;;1.10;1.10;;;35.30;71.40;;;;;;4970120;28;20479;-76
2021/08/12 12:12:47;;;;;;;0.80;0.80;;;34.80;74.70;;;;;;4989991;28;20753;-76
2021/08/12 12:15:12;;;;;;;1.00;1.00;;;34.80;67.90;;;;;;4985924;28;20406;-77
2021/08/12 12:17:43;;;;;;;1.27;1.17;;;34.40;68.10;;;;;;4974255;28;21236;-76
2021/08/12 12:20:14;;;;;;;1.10;1.10;;;34.60;64.20;;;;;;4973624;28;20504;-76
2021/08/12 12:22:42;;;;;;;1.15;1.15;;;34.70;73.40;;;;;;4988559;28;20484;-76
2021/08/12 12:25:12;;;;;;;1.40;1.30;;;34.80;74.80;;;;;;4971915;28;20476;-77
2021/08/12 12:27:38;;;;;;;1.30;1.20;;;35.10;68.40;;;;;;4972443;28;20412;-77
2021/08/12 12:30:09;;;;;;;1.30;1.20;;;35.20;67.00;;;;;;5007848;28;20781;-76
2021/08/12 12:32:35;;;;;;;1.38;1.27;;;35.40;72.10;;;;;;4974728;28;20458;-77
2021/08/12 12:35:05;;;;;;;1.02;1.02;;;35.60;72.70;;;;;;5005078;28;20924;-76
2021/08/12 12:37:30;;;;;;;1.38;1.27;;;35.90;71.80;;;;;;4973026;28;20397;-77
2021/08/12 12:39:56;;;;;;;1.73;1.38;;;36.20;75.80;;;;;;4988773;28;20508;-76
2021/08/12 12:42:24;;;;;;;1.23;1.02;;;35.90;56.20;;;;;;4983646;28;20405;-76
2021/08/12 12:45:02;;;;;;;1.10;1.10;;;35.60;67.20;;;;;;4989351;28;20389;-76
2021/08/12 12:47:29;;;;;;;1.48;1.38;;;35.80;68.30;;;;;;5003535;28;20417;-76
2021/08/12 12:50:11;;;;;;;1.40;1.30;;;35.80;65.80;;;;;;4980733;28;20400;-77
2021/08/12 12:52:51;;;;;;;1.33;1.23;;;36.00;67.90;;;;;;4993887;28;20405;-77
2021/08/12 12:55:18;;;;;;;1.33;1.23;;;36.30;71.20;;;;;;4999107;28;20403;-77